sensor_id;sensor_type;location;lat;lon;timestamp;P1;durP1;ratioP1;P2;durP2;ratioP2
1026;SDS011;502;48.746;9.214;2022-07-19T00:01:07;6.53;;;5.93;;
1026;SDS011;502;48.746;9.214;2022-07-19T00:03:34;7.20;;;5.60;;
1026;SDS011;502;48.746;9.214;2022-07-19T00:06:01;6.07;;;5.47;;
1026;SDS011;502;48.746;9.214;2022-07-19T00:08:28;7.20;;;5.90;;
1026;SDS011;502;48.746;9.214;2022-07-19T00:10:54;6.00;;;5.50;;
1026;SDS011;502;48.746;9.214;2022-07-19T00:13:21;6.93;;;6.20;;
1026;SDS011;502;48.746;9.214;2022-07-19T00:15:48;5.40;;;5.00;;
1026;SDS011;502;48.746;9.214;2022-07-19T00:18:16;6.43;;;5.57;;
1026;SDS011;502;48.746;9.214;2022-07-19T00:20:43;6.13;;;5.63;;
1026;SDS011;502;48.746;9.214;2022-07-19T00:23:09;6.70;;;5.50;;
1026;SDS011;502;48.746;9.214;2022-07-19T00:25:36;6.57;;;5.43;;
1026;SDS011;502;48.746;9.214;2022-07-19T00:28:03;6.10;;;5.10;;
1026;SDS011;502;48.746;9.214;2022-07-19T00:30:30;8.73;;;5.10;;
1026;SDS011;502;48.746;9.214;2022-07-19T00:32:56;5.83;;;5.37;;
1026;SDS011;502;48.746;9.214;2022-07-19T00:35:25;5.27;;;4.87;;
1026;SDS011;502;48.746;9.214;2022-07-19T00:37:51;5.53;;;5.13;;
1026;SDS011;502;48.746;9.214;2022-07-19T00:40:20;6.03;;;5.53;;
1026;SDS011;502;48.746;9.214;2022-07-19T00:42:48;5.80;;;5.40;;
1026;SDS011;502;48.746;9.214;2022-07-19T00:45:15;5.93;;;5.47;;
1026;SDS011;502;48.746;9.214;2022-07-19T00:47:42;4.90;;;4.50;;
1026;SDS011;502;48.746;9.214;2022-07-19T00:50:09;10.17;;;5.53;;
1026;SDS011;502;48.746;9.214;2022-07-19T00:52:37;5.30;;;4.80;;
1026;SDS011;502;48.746;9.214;2022-07-19T00:55:06;5.70;;;5.20;;
1026;SDS011;502;48.746;9.214;2022-07-19T00:57:34;5.03;;;4.63;;
1026;SDS011;502;48.746;9.214;2022-07-19T01:00:04;5.47;;;4.97;;
1026;SDS011;502;48.746;9.214;2022-07-19T01:02:31;5.30;;;4.90;;
1026;SDS011;502;48.746;9.214;2022-07-19T01:04:58;6.80;;;4.50;;
1026;SDS011;502;48.746;9.214;2022-07-19T01:07:26;5.20;;;4.80;;
1026;SDS011;502;48.746;9.214;2022-07-19T01:09:54;6.73;;;4.67;;
1026;SDS011;502;48.746;9.214;2022-07-19T01:12:21;5.60;;;5.10;;
1026;SDS011;502;48.746;9.214;2022-07-19T01:14:48;5.50;;;4.40;;
1026;SDS011;502;48.746;9.214;2022-07-19T01:17:15;5.33;;;4.83;;
1026;SDS011;502;48.746;9.214;2022-07-19T01:19:42;5.50;;;4.97;;
1026;SDS011;502;48.746;9.214;2022-07-19T01:22:10;5.33;;;4.93;;
1026;SDS011;502;48.746;9.214;2022-07-19T01:24:37;5.30;;;4.80;;
1026;SDS011;502;48.746;9.214;2022-07-19T01:27:04;5.97;;;4.87;;
1026;SDS011;502;48.746;9.214;2022-07-19T01:29:31;5.63;;;4.93;;
1026;SDS011;502;48.746;9.214;2022-07-19T01:32:00;5.53;;;4.73;;
1026;SDS011;502;48.746;9.214;2022-07-19T01:34:27;6.03;;;5.33;;
1026;SDS011;502;48.746;9.214;2022-07-19T01:36:54;5.57;;;5.07;;
1026;SDS011;502;48.746;9.214;2022-07-19T01:39:22;5.30;;;4.80;;
1026;SDS011;502;48.746;9.214;2022-07-19T01:41:49;6.87;;;5.10;;
1026;SDS011;502;48.746;9.214;2022-07-19T01:44:15;6.53;;;5.10;;
1026;SDS011;502;48.746;9.214;2022-07-19T01:46:42;5.90;;;5.30;;
1026;SDS011;502;48.746;9.214;2022-07-19T01:49:09;5.80;;;5.37;;
1026;SDS011;502;48.746;9.214;2022-07-19T01:51:36;5.30;;;4.80;;
1026;SDS011;502;48.746;9.214;2022-07-19T01:54:02;5.80;;;5.40;;
1026;SDS011;502;48.746;9.214;2022-07-19T01:56:30;6.00;;;5.40;;
1026;SDS011;502;48.746;9.214;2022-07-19T01:58:57;5.20;;;4.80;;
1026;SDS011;502;48.746;9.214;2022-07-19T02:01:24;5.80;;;5.30;;
1026;SDS011;502;48.746;9.214;2022-07-19T02:03:51;5.60;;;5.10;;
1026;SDS011;502;48.746;9.214;2022-07-19T02:06:17;5.20;;;4.80;;
1026;SDS011;502;48.746;9.214;2022-07-19T02:08:44;6.77;;;5.70;;
1026;SDS011;502;48.746;9.214;2022-07-19T02:11:11;5.20;;;4.70;;
1026;SDS011;502;48.746;9.214;2022-07-19T02:13:57;5.67;;;5.17;;
1026;SDS011;502;48.746;9.214;2022-07-19T02:16:23;5.80;;;5.20;;
1026;SDS011;502;48.746;9.214;2022-07-19T02:18:50;5.67;;;5.17;;
1026;SDS011;502;48.746;9.214;2022-07-19T02:21:17;5.83;;;5.33;;
1026;SDS011;502;48.746;9.214;2022-07-19T02:23:43;6.20;;;5.63;;
1026;SDS011;502;48.746;9.214;2022-07-19T02:26:10;5.33;;;4.93;;
1026;SDS011;502;48.746;9.214;2022-07-19T02:28:37;4.90;;;4.50;;
1026;SDS011;502;48.746;9.214;2022-07-19T02:31:05;6.03;;;5.03;;
1026;SDS011;502;48.746;9.214;2022-07-19T02:33:32;6.83;;;5.03;;
1026;SDS011;502;48.746;9.214;2022-07-19T02:35:58;5.13;;;4.30;;
1026;SDS011;502;48.746;9.214;2022-07-19T02:38:25;5.70;;;5.13;;
1026;SDS011;502;48.746;9.214;2022-07-19T02:40:52;8.13;;;4.93;;
1026;SDS011;502;48.746;9.214;2022-07-19T02:43:19;5.43;;;4.97;;
1026;SDS011;502;48.746;9.214;2022-07-19T02:45:46;5.73;;;5.23;;
1026;SDS011;502;48.746;9.214;2022-07-19T02:48:14;5.70;;;5.10;;
1026;SDS011;502;48.746;9.214;2022-07-19T02:50:41;5.77;;;5.00;;
1026;SDS011;502;48.746;9.214;2022-07-19T02:53:08;5.20;;;4.73;;
1026;SDS011;502;48.746;9.214;2022-07-19T02:55:35;7.37;;;5.20;;
1026;SDS011;502;48.746;9.214;2022-07-19T02:58:02;5.60;;;5.00;;
1026;SDS011;502;48.746;9.214;2022-07-19T03:00:29;7.10;;;4.57;;
1026;SDS011;502;48.746;9.214;2022-07-19T03:02:56;8.60;;;5.23;;
1026;SDS011;502;48.746;9.214;2022-07-19T03:05:45;5.90;;;5.30;;
1026;SDS011;502;48.746;9.214;2022-07-19T03:08:12;5.10;;;4.70;;
1026;SDS011;502;48.746;9.214;2022-07-19T03:10:39;5.90;;;5.40;;
1026;SDS011;502;48.746;9.214;2022-07-19T03:13:06;5.57;;;5.07;;
1026;SDS011;502;48.746;9.214;2022-07-19T03:15:33;6.50;;;5.33;;
1026;SDS011;502;48.746;9.214;2022-07-19T03:18:01;7.13;;;4.77;;
1026;SDS011;502;48.746;9.214;2022-07-19T03:20:27;6.80;;;4.87;;
1026;SDS011;502;48.746;9.214;2022-07-19T03:22:55;4.93;;;4.53;;
1026;SDS011;502;48.746;9.214;2022-07-19T03:25:22;5.30;;;4.80;;
1026;SDS011;502;48.746;9.214;2022-07-19T03:27:51;5.30;;;4.90;;
1026;SDS011;502;48.746;9.214;2022-07-19T03:30:18;4.40;;;4.10;;
1026;SDS011;502;48.746;9.214;2022-07-19T03:32:45;4.70;;;4.30;;
1026;SDS011;502;48.746;9.214;2022-07-19T03:35:13;5.37;;;4.87;;
1026;SDS011;502;48.746;9.214;2022-07-19T03:37:39;5.63;;;5.13;;
1026;SDS011;502;48.746;9.214;2022-07-19T03:40:08;5.07;;;4.57;;
1026;SDS011;502;48.746;9.214;2022-07-19T03:42:36;8.23;;;5.47;;
1026;SDS011;502;48.746;9.214;2022-07-19T03:45:03;5.90;;;5.40;;
1026;SDS011;502;48.746;9.214;2022-07-19T03:47:30;6.20;;;5.13;;
1026;SDS011;502;48.746;9.214;2022-07-19T03:49:57;5.67;;;5.17;;
1026;SDS011;502;48.746;9.214;2022-07-19T03:52:23;5.50;;;5.00;;
1026;SDS011;502;48.746;9.214;2022-07-19T03:54:50;5.43;;;5.00;;
1026;SDS011;502;48.746;9.214;2022-07-19T03:57:19;7.23;;;5.10;;
1026;SDS011;502;48.746;9.214;2022-07-19T03:59:46;5.60;;;5.10;;
1026;SDS011;502;48.746;9.214;2022-07-19T04:02:12;5.37;;;4.90;;
1026;SDS011;502;48.746;9.214;2022-07-19T04:04:39;5.10;;;4.70;;
1026;SDS011;502;48.746;9.214;2022-07-19T04:07:06;5.60;;;5.10;;
1026;SDS011;502;48.746;9.214;2022-07-19T04:09:32;6.27;;;5.67;;
1026;SDS011;502;48.746;9.214;2022-07-19T04:11:59;5.57;;;5.07;;
1026;SDS011;502;48.746;9.214;2022-07-19T04:14:27;5.73;;;5.23;;
1026;SDS011;502;48.746;9.214;2022-07-19T04:16:54;5.40;;;4.90;;
1026;SDS011;502;48.746;9.214;2022-07-19T04:19:20;5.30;;;4.80;;
1026;SDS011;502;48.746;9.214;2022-07-19T04:21:47;6.03;;;5.00;;
1026;SDS011;502;48.746;9.214;2022-07-19T04:24:14;5.10;;;4.70;;
1026;SDS011;502;48.746;9.214;2022-07-19T04:26:40;4.90;;;4.50;;
1026;SDS011;502;48.746;9.214;2022-07-19T04:29:07;6.17;;;5.13;;
1026;SDS011;502;48.746;9.214;2022-07-19T04:31:36;5.83;;;5.13;;
1026;SDS011;502;48.746;9.214;2022-07-19T04:34:03;6.00;;;5.37;;
1026;SDS011;502;48.746;9.214;2022-07-19T04:36:31;7.90;;;5.57;;
1026;SDS011;502;48.746;9.214;2022-07-19T04:38:57;10.63;;;5.80;;
1026;SDS011;502;48.746;9.214;2022-07-19T04:41:24;8.83;;;4.90;;
1026;SDS011;502;48.746;9.214;2022-07-19T04:43:51;6.57;;;5.97;;
1026;SDS011;502;48.746;9.214;2022-07-19T04:46:18;6.80;;;5.70;;
1026;SDS011;502;48.746;9.214;2022-07-19T04:48:46;5.87;;;5.47;;
1026;SDS011;502;48.746;9.214;2022-07-19T04:51:13;6.53;;;5.37;;
1026;SDS011;502;48.746;9.214;2022-07-19T04:53:40;5.63;;;5.00;;
1026;SDS011;502;48.746;9.214;2022-07-19T04:56:07;6.40;;;5.80;;
1026;SDS011;502;48.746;9.214;2022-07-19T04:58:33;8.57;;;5.43;;
1026;SDS011;502;48.746;9.214;2022-07-19T05:01:00;7.03;;;5.17;;
1026;SDS011;502;48.746;9.214;2022-07-19T05:03:27;6.40;;;4.90;;
1026;SDS011;502;48.746;9.214;2022-07-19T05:05:55;5.80;;;5.00;;
1026;SDS011;502;48.746;9.214;2022-07-19T05:08:22;5.87;;;4.53;;
1026;SDS011;502;48.746;9.214;2022-07-19T05:10:49;9.33;;;5.80;;
1026;SDS011;502;48.746;9.214;2022-07-19T05:13:15;5.80;;;5.30;;
1026;SDS011;502;48.746;9.214;2022-07-19T05:15:42;8.40;;;4.80;;
1026;SDS011;502;48.746;9.214;2022-07-19T05:18:09;5.50;;;4.63;;
1026;SDS011;502;48.746;9.214;2022-07-19T05:20:35;5.53;;;5.13;;
1026;SDS011;502;48.746;9.214;2022-07-19T05:23:03;5.60;;;4.60;;
1026;SDS011;502;48.746;9.214;2022-07-19T05:25:30;5.30;;;4.90;;
1026;SDS011;502;48.746;9.214;2022-07-19T05:27:57;5.63;;;4.97;;
1026;SDS011;502;48.746;9.214;2022-07-19T05:30:24;4.60;;;4.17;;
1026;SDS011;502;48.746;9.214;2022-07-19T05:32:51;4.93;;;4.50;;
1026;SDS011;502;48.746;9.214;2022-07-19T05:35:17;4.10;;;3.80;;
1026;SDS011;502;48.746;9.214;2022-07-19T05:37:44;4.43;;;4.03;;
1026;SDS011;502;48.746;9.214;2022-07-19T05:40:12;4.30;;;3.97;;
1026;SDS011;502;48.746;9.214;2022-07-19T05:42:39;4.90;;;4.50;;
1026;SDS011;502;48.746;9.214;2022-07-19T05:45:06;4.40;;;4.00;;
1026;SDS011;502;48.746;9.214;2022-07-19T05:47:33;5.73;;;5.10;;
1026;SDS011;502;48.746;9.214;2022-07-19T05:50:00;4.67;;;4.27;;
1026;SDS011;502;48.746;9.214;2022-07-19T05:52:27;5.20;;;4.70;;
1026;SDS011;502;48.746;9.214;2022-07-19T05:54:54;6.47;;;3.90;;
1026;SDS011;502;48.746;9.214;2022-07-19T05:57:22;4.17;;;3.73;;
1026;SDS011;502;48.746;9.214;2022-07-19T05:59:49;5.30;;;4.80;;
1026;SDS011;502;48.746;9.214;2022-07-19T06:02:16;5.00;;;3.90;;
1026;SDS011;502;48.746;9.214;2022-07-19T06:04:42;4.57;;;3.97;;
1026;SDS011;502;48.746;9.214;2022-07-19T06:07:09;4.80;;;4.40;;
1026;SDS011;502;48.746;9.214;2022-07-19T06:09:36;4.50;;;4.10;;
1026;SDS011;502;48.746;9.214;2022-07-19T06:12:03;4.93;;;4.10;;
1026;SDS011;502;48.746;9.214;2022-07-19T06:14:31;5.53;;;4.00;;
1026;SDS011;502;48.746;9.214;2022-07-19T06:16:57;3.60;;;3.30;;
1026;SDS011;502;48.746;9.214;2022-07-19T06:19:24;3.90;;;3.60;;
1026;SDS011;502;48.746;9.214;2022-07-19T06:21:51;4.03;;;3.73;;
1026;SDS011;502;48.746;9.214;2022-07-19T06:24:18;3.73;;;3.43;;
1026;SDS011;502;48.746;9.214;2022-07-19T06:26:45;7.00;;;4.00;;
1026;SDS011;502;48.746;9.214;2022-07-19T06:29:12;4.00;;;3.60;;
1026;SDS011;502;48.746;9.214;2022-07-19T06:31:43;4.27;;;3.80;;
1026;SDS011;502;48.746;9.214;2022-07-19T06:34:09;3.90;;;3.60;;
1026;SDS011;502;48.746;9.214;2022-07-19T06:36:36;4.23;;;3.80;;
1026;SDS011;502;48.746;9.214;2022-07-19T06:39:03;4.10;;;3.47;;
1026;SDS011;502;48.746;9.214;2022-07-19T06:41:30;4.23;;;3.93;;
1026;SDS011;502;48.746;9.214;2022-07-19T06:43:56;4.23;;;3.87;;
1026;SDS011;502;48.746;9.214;2022-07-19T06:46:23;4.27;;;3.93;;
1026;SDS011;502;48.746;9.214;2022-07-19T06:48:51;4.63;;;4.10;;
1026;SDS011;502;48.746;9.214;2022-07-19T06:51:18;6.23;;;3.83;;
1026;SDS011;502;48.746;9.214;2022-07-19T06:53:44;4.73;;;3.63;;
1026;SDS011;502;48.746;9.214;2022-07-19T06:56:11;4.00;;;3.70;;
1026;SDS011;502;48.746;9.214;2022-07-19T06:58:38;6.73;;;3.97;;
1026;SDS011;502;48.746;9.214;2022-07-19T07:01:05;4.77;;;4.27;;
1026;SDS011;502;48.746;9.214;2022-07-19T07:03:31;4.93;;;4.30;;
1026;SDS011;502;48.746;9.214;2022-07-19T07:05:59;4.43;;;4.10;;
1026;SDS011;502;48.746;9.214;2022-07-19T07:08:26;6.33;;;3.57;;
1026;SDS011;502;48.746;9.214;2022-07-19T07:10:53;7.30;;;3.53;;
1026;SDS011;502;48.746;9.214;2022-07-19T07:13:20;5.50;;;4.50;;
1026;SDS011;502;48.746;9.214;2022-07-19T07:15:46;5.00;;;4.20;;
1026;SDS011;502;48.746;9.214;2022-07-19T07:18:13;4.07;;;3.67;;
1026;SDS011;502;48.746;9.214;2022-07-19T07:20:40;4.70;;;3.77;;
1026;SDS011;502;48.746;9.214;2022-07-19T07:23:08;4.40;;;3.83;;
1026;SDS011;502;48.746;9.214;2022-07-19T07:25:35;4.10;;;3.70;;
1026;SDS011;502;48.746;9.214;2022-07-19T07:28:02;5.30;;;3.43;;
1026;SDS011;502;48.746;9.214;2022-07-19T07:30:29;4.23;;;3.90;;
1026;SDS011;502;48.746;9.214;2022-07-19T07:32:55;4.87;;;4.47;;
1026;SDS011;502;48.746;9.214;2022-07-19T07:35:22;4.80;;;4.00;;
1026;SDS011;502;48.746;9.214;2022-07-19T07:37:49;4.53;;;3.63;;
1026;SDS011;502;48.746;9.214;2022-07-19T07:40:17;4.63;;;3.30;;
1026;SDS011;502;48.746;9.214;2022-07-19T07:42:43;4.80;;;4.30;;
1026;SDS011;502;48.746;9.214;2022-07-19T07:45:10;4.00;;;3.70;;
1026;SDS011;502;48.746;9.214;2022-07-19T07:47:37;5.67;;;5.13;;
1026;SDS011;502;48.746;9.214;2022-07-19T07:50:04;5.40;;;4.90;;
1026;SDS011;502;48.746;9.214;2022-07-19T07:52:31;7.40;;;6.33;;
1026;SDS011;502;48.746;9.214;2022-07-19T07:54:58;5.00;;;4.60;;
1026;SDS011;502;48.746;9.214;2022-07-19T07:57:27;4.17;;;3.87;;
1026;SDS011;502;48.746;9.214;2022-07-19T07:59:54;5.87;;;3.57;;
1026;SDS011;502;48.746;9.214;2022-07-19T08:02:21;4.93;;;3.50;;
1026;SDS011;502;48.746;9.214;2022-07-19T08:04:48;4.30;;;4.00;;
1026;SDS011;502;48.746;9.214;2022-07-19T08:07:14;4.67;;;4.17;;
1026;SDS011;502;48.746;9.214;2022-07-19T08:09:41;5.60;;;5.03;;
1026;SDS011;502;48.746;9.214;2022-07-19T08:12:08;3.93;;;3.63;;
1026;SDS011;502;48.746;9.214;2022-07-19T08:14:36;4.40;;;4.00;;
1026;SDS011;502;48.746;9.214;2022-07-19T08:17:03;4.87;;;4.57;;
1026;SDS011;502;48.746;9.214;2022-07-19T08:19:29;4.10;;;3.80;;
1026;SDS011;502;48.746;9.214;2022-07-19T08:21:56;3.60;;;3.30;;
1026;SDS011;502;48.746;9.214;2022-07-19T08:24:23;5.00;;;3.63;;
1026;SDS011;502;48.746;9.214;2022-07-19T08:26:50;4.03;;;3.73;;
1026;SDS011;502;48.746;9.214;2022-07-19T08:29:16;3.43;;;3.23;;
1026;SDS011;502;48.746;9.214;2022-07-19T08:31:44;3.67;;;3.37;;
1026;SDS011;502;48.746;9.214;2022-07-19T08:34:11;4.50;;;3.80;;
1026;SDS011;502;48.746;9.214;2022-07-19T08:36:38;4.90;;;3.60;;
1026;SDS011;502;48.746;9.214;2022-07-19T08:39:05;4.87;;;3.90;;
1026;SDS011;502;48.746;9.214;2022-07-19T08:41:31;3.90;;;3.60;;
1026;SDS011;502;48.746;9.214;2022-07-19T08:43:59;4.50;;;3.70;;
1026;SDS011;502;48.746;9.214;2022-07-19T08:46:29;4.60;;;3.70;;
1026;SDS011;502;48.746;9.214;2022-07-19T08:48:57;4.67;;;4.13;;
1026;SDS011;502;48.746;9.214;2022-07-19T08:51:23;3.97;;;3.50;;
1026;SDS011;502;48.746;9.214;2022-07-19T08:53:50;3.80;;;3.30;;
1026;SDS011;502;48.746;9.214;2022-07-19T08:56:17;6.00;;;4.03;;
1026;SDS011;502;48.746;9.214;2022-07-19T08:59:02;4.00;;;3.70;;
1026;SDS011;502;48.746;9.214;2022-07-19T09:01:29;4.20;;;3.63;;
1026;SDS011;502;48.746;9.214;2022-07-19T09:04:04;3.70;;;3.33;;
1026;SDS011;502;48.746;9.214;2022-07-19T09:06:36;4.20;;;3.90;;
1026;SDS011;502;48.746;9.214;2022-07-19T09:09:03;7.77;;;3.67;;
1026;SDS011;502;48.746;9.214;2022-07-19T09:11:33;3.53;;;3.20;;
1026;SDS011;502;48.746;9.214;2022-07-19T09:14:05;3.93;;;3.43;;
1026;SDS011;502;48.746;9.214;2022-07-19T09:16:47;4.50;;;3.17;;
1026;SDS011;502;48.746;9.214;2022-07-19T09:19:28;4.20;;;3.30;;
1026;SDS011;502;48.746;9.214;2022-07-19T09:21:57;3.90;;;3.60;;
1026;SDS011;502;48.746;9.214;2022-07-19T09:24:26;4.60;;;3.60;;
1026;SDS011;502;48.746;9.214;2022-07-19T09:26:54;3.67;;;3.47;;
1026;SDS011;502;48.746;9.214;2022-07-19T09:29:25;3.90;;;3.40;;
1026;SDS011;502;48.746;9.214;2022-07-19T09:31:59;5.03;;;3.33;;
1026;SDS011;502;48.746;9.214;2022-07-19T09:34:29;3.53;;;3.23;;
1026;SDS011;502;48.746;9.214;2022-07-19T09:37:06;7.27;;;3.67;;
1026;SDS011;502;48.746;9.214;2022-07-19T09:39:36;3.80;;;3.50;;
1026;SDS011;502;48.746;9.214;2022-07-19T09:42:06;3.30;;;3.00;;
1026;SDS011;502;48.746;9.214;2022-07-19T09:44:33;4.10;;;3.73;;
1026;SDS011;502;48.746;9.214;2022-07-19T09:47:00;4.13;;;3.40;;
1026;SDS011;502;48.746;9.214;2022-07-19T09:49:28;3.97;;;3.67;;
1026;SDS011;502;48.746;9.214;2022-07-19T09:51:55;3.70;;;3.40;;
1026;SDS011;502;48.746;9.214;2022-07-19T09:54:24;4.00;;;3.60;;
1026;SDS011;502;48.746;9.214;2022-07-19T09:56:52;3.53;;;3.33;;
1026;SDS011;502;48.746;9.214;2022-07-19T09:59:20;4.10;;;3.43;;
1026;SDS011;502;48.746;9.214;2022-07-19T10:01:48;6.40;;;3.60;;
1026;SDS011;502;48.746;9.214;2022-07-19T10:04:18;4.63;;;3.80;;
1026;SDS011;502;48.746;9.214;2022-07-19T10:06:47;3.83;;;3.50;;
1026;SDS011;502;48.746;9.214;2022-07-19T10:09:16;3.90;;;3.60;;
1026;SDS011;502;48.746;9.214;2022-07-19T10:11:44;4.00;;;3.70;;
1026;SDS011;502;48.746;9.214;2022-07-19T10:14:10;4.33;;;3.93;;
1026;SDS011;502;48.746;9.214;2022-07-19T10:16:51;8.03;;;4.00;;
1026;SDS011;502;48.746;9.214;2022-07-19T10:19:35;6.27;;;3.60;;
1026;SDS011;502;48.746;9.214;2022-07-19T10:22:06;3.87;;;3.47;;
1026;SDS011;502;48.746;9.214;2022-07-19T10:24:42;7.63;;;3.57;;
1026;SDS011;502;48.746;9.214;2022-07-19T10:27:14;3.83;;;3.53;;
1026;SDS011;502;48.746;9.214;2022-07-19T10:29:41;4.10;;;3.70;;
1026;SDS011;502;48.746;9.214;2022-07-19T10:32:09;3.70;;;3.40;;
1026;SDS011;502;48.746;9.214;2022-07-19T10:34:36;4.20;;;3.80;;
1026;SDS011;502;48.746;9.214;2022-07-19T10:37:05;4.00;;;3.57;;
1026;SDS011;502;48.746;9.214;2022-07-19T10:39:32;5.73;;;3.63;;
1026;SDS011;502;48.746;9.214;2022-07-19T10:45:09;4.20;;;3.70;;
1026;SDS011;502;48.746;9.214;2022-07-19T10:50:49;5.90;;;4.00;;
1026;SDS011;502;48.746;9.214;2022-07-19T10:56:23;4.20;;;3.90;;
1026;SDS011;502;48.746;9.214;2022-07-19T10:58:51;4.13;;;3.70;;
1026;SDS011;502;48.746;9.214;2022-07-19T11:01:19;4.40;;;4.00;;
1026;SDS011;502;48.746;9.214;2022-07-19T11:03:47;8.67;;;3.90;;
1026;SDS011;502;48.746;9.214;2022-07-19T11:06:18;4.00;;;3.70;;
1026;SDS011;502;48.746;9.214;2022-07-19T11:08:46;4.10;;;3.70;;
1026;SDS011;502;48.746;9.214;2022-07-19T11:11:14;4.23;;;3.87;;
1026;SDS011;502;48.746;9.214;2022-07-19T11:13:46;7.23;;;4.30;;
1026;SDS011;502;48.746;9.214;2022-07-19T11:16:14;4.60;;;3.50;;
1026;SDS011;502;48.746;9.214;2022-07-19T11:18:41;3.73;;;3.43;;
1026;SDS011;502;48.746;9.214;2022-07-19T11:21:08;3.97;;;3.67;;
1026;SDS011;502;48.746;9.214;2022-07-19T11:23:37;4.33;;;3.80;;
1026;SDS011;502;48.746;9.214;2022-07-19T11:26:05;5.00;;;4.10;;
1026;SDS011;502;48.746;9.214;2022-07-19T11:28:34;3.90;;;3.50;;
1026;SDS011;502;48.746;9.214;2022-07-19T11:31:05;4.20;;;3.87;;
1026;SDS011;502;48.746;9.214;2022-07-19T11:33:37;4.37;;;3.97;;
1026;SDS011;502;48.746;9.214;2022-07-19T11:36:04;7.33;;;3.77;;
1026;SDS011;502;48.746;9.214;2022-07-19T11:38:37;4.47;;;4.07;;
1026;SDS011;502;48.746;9.214;2022-07-19T11:41:11;4.50;;;4.10;;
1026;SDS011;502;48.746;9.214;2022-07-19T11:43:39;5.60;;;3.90;;
1026;SDS011;502;48.746;9.214;2022-07-19T11:46:07;4.27;;;3.73;;
1026;SDS011;502;48.746;9.214;2022-07-19T11:48:34;6.07;;;4.30;;
1026;SDS011;502;48.746;9.214;2022-07-19T11:51:03;6.00;;;3.60;;
1026;SDS011;502;48.746;9.214;2022-07-19T11:53:33;5.20;;;4.63;;
1026;SDS011;502;48.746;9.214;2022-07-19T11:56:01;5.10;;;4.23;;
1026;SDS011;502;48.746;9.214;2022-07-19T11:58:27;4.53;;;3.90;;
1026;SDS011;502;48.746;9.214;2022-07-19T12:00:59;4.47;;;4.03;;
1026;SDS011;502;48.746;9.214;2022-07-19T12:03:29;5.17;;;4.40;;
1026;SDS011;502;48.746;9.214;2022-07-19T12:05:57;6.23;;;4.10;;
1026;SDS011;502;48.746;9.214;2022-07-19T12:08:34;3.67;;;3.37;;
1026;SDS011;502;48.746;9.214;2022-07-19T12:11:14;4.73;;;4.33;;
1026;SDS011;502;48.746;9.214;2022-07-19T12:13:42;4.50;;;4.20;;
1026;SDS011;502;48.746;9.214;2022-07-19T12:16:09;4.67;;;3.80;;
1026;SDS011;502;48.746;9.214;2022-07-19T12:18:43;6.33;;;4.33;;
1026;SDS011;502;48.746;9.214;2022-07-19T12:21:15;4.90;;;3.77;;
1026;SDS011;502;48.746;9.214;2022-07-19T12:26:56;4.60;;;4.20;;
1026;SDS011;502;48.746;9.214;2022-07-19T12:29:28;4.80;;;4.30;;
1026;SDS011;502;48.746;9.214;2022-07-19T12:31:57;4.83;;;4.33;;
1026;SDS011;502;48.746;9.214;2022-07-19T12:34:27;5.63;;;4.10;;
1026;SDS011;502;48.746;9.214;2022-07-19T12:36:55;8.43;;;3.77;;
1026;SDS011;502;48.746;9.214;2022-07-19T12:39:23;4.63;;;4.23;;
1026;SDS011;502;48.746;9.214;2022-07-19T12:42:01;5.70;;;4.90;;
1026;SDS011;502;48.746;9.214;2022-07-19T12:44:30;5.07;;;4.57;;
1026;SDS011;502;48.746;9.214;2022-07-19T12:46:57;5.33;;;4.80;;
1026;SDS011;502;48.746;9.214;2022-07-19T12:49:24;6.77;;;4.40;;
1026;SDS011;502;48.746;9.214;2022-07-19T12:51:52;7.00;;;4.53;;
1026;SDS011;502;48.746;9.214;2022-07-19T12:54:19;5.40;;;4.80;;
1026;SDS011;502;48.746;9.214;2022-07-19T12:56:45;4.33;;;3.93;;
1026;SDS011;502;48.746;9.214;2022-07-19T12:59:12;6.40;;;4.70;;
1026;SDS011;502;48.746;9.214;2022-07-19T13:01:56;6.53;;;4.47;;
1026;SDS011;502;48.746;9.214;2022-07-19T13:04:23;5.40;;;5.00;;
1026;SDS011;502;48.746;9.214;2022-07-19T13:06:51;5.13;;;4.53;;
1026;SDS011;502;48.746;9.214;2022-07-19T13:09:18;5.17;;;4.67;;
1026;SDS011;502;48.746;9.214;2022-07-19T13:11:45;4.97;;;4.47;;
1026;SDS011;502;48.746;9.214;2022-07-19T13:14:12;6.20;;;4.33;;
1026;SDS011;502;48.746;9.214;2022-07-19T13:16:39;4.87;;;4.30;;
1026;SDS011;502;48.746;9.214;2022-07-19T13:19:06;4.43;;;4.13;;
1026;SDS011;502;48.746;9.214;2022-07-19T13:21:33;4.30;;;3.90;;
1026;SDS011;502;48.746;9.214;2022-07-19T13:24:02;7.10;;;4.33;;
1026;SDS011;502;48.746;9.214;2022-07-19T13:26:29;5.00;;;4.50;;
1026;SDS011;502;48.746;9.214;2022-07-19T13:28:56;4.30;;;4.00;;
1026;SDS011;502;48.746;9.214;2022-07-19T13:31:22;5.10;;;4.60;;
1026;SDS011;502;48.746;9.214;2022-07-19T13:33:49;6.97;;;4.10;;
1026;SDS011;502;48.746;9.214;2022-07-19T13:36:16;4.80;;;4.50;;
1026;SDS011;502;48.746;9.214;2022-07-19T13:38:43;4.53;;;4.13;;
1026;SDS011;502;48.746;9.214;2022-07-19T13:41:11;4.57;;;4.17;;
1026;SDS011;502;48.746;9.214;2022-07-19T13:43:38;3.70;;;3.40;;
1026;SDS011;502;48.746;9.214;2022-07-19T13:46:05;5.47;;;4.10;;
1026;SDS011;502;48.746;9.214;2022-07-19T13:48:32;5.83;;;4.20;;
1026;SDS011;502;48.746;9.214;2022-07-19T13:50:58;3.80;;;3.50;;
1026;SDS011;502;48.746;9.214;2022-07-19T13:53:25;4.77;;;4.13;;
1026;SDS011;502;48.746;9.214;2022-07-19T13:55:52;6.43;;;4.17;;
1026;SDS011;502;48.746;9.214;2022-07-19T13:58:20;5.13;;;4.20;;
1026;SDS011;502;48.746;9.214;2022-07-19T14:00:47;4.47;;;4.07;;
1026;SDS011;502;48.746;9.214;2022-07-19T14:03:14;4.83;;;3.53;;
1026;SDS011;502;48.746;9.214;2022-07-19T14:05:42;4.90;;;4.40;;
1026;SDS011;502;48.746;9.214;2022-07-19T14:08:09;5.63;;;4.43;;
1026;SDS011;502;48.746;9.214;2022-07-19T14:10:36;5.10;;;4.60;;
1026;SDS011;502;48.746;9.214;2022-07-19T14:13:04;4.30;;;3.90;;
1026;SDS011;502;48.746;9.214;2022-07-19T14:15:32;5.63;;;4.10;;
1026;SDS011;502;48.746;9.214;2022-07-19T14:17:59;5.90;;;4.47;;
1026;SDS011;502;48.746;9.214;2022-07-19T14:20:26;4.60;;;4.20;;
1026;SDS011;502;48.746;9.214;2022-07-19T14:22:53;6.00;;;3.80;;
1026;SDS011;502;48.746;9.214;2022-07-19T14:25:20;5.07;;;4.57;;
1026;SDS011;502;48.746;9.214;2022-07-19T14:27:47;4.30;;;3.90;;
1026;SDS011;502;48.746;9.214;2022-07-19T14:30:14;6.33;;;4.90;;
1026;SDS011;502;48.746;9.214;2022-07-19T14:32:42;4.50;;;4.10;;
1026;SDS011;502;48.746;9.214;2022-07-19T14:35:09;8.20;;;4.50;;
1026;SDS011;502;48.746;9.214;2022-07-19T14:37:36;5.40;;;4.40;;
1026;SDS011;502;48.746;9.214;2022-07-19T14:40:03;5.13;;;4.40;;
1026;SDS011;502;48.746;9.214;2022-07-19T14:42:31;3.80;;;3.50;;
1026;SDS011;502;48.746;9.214;2022-07-19T14:44:58;5.23;;;4.50;;
1026;SDS011;502;48.746;9.214;2022-07-19T14:47:25;4.50;;;4.10;;
1026;SDS011;502;48.746;9.214;2022-07-19T14:49:53;4.73;;;4.33;;
1026;SDS011;502;48.746;9.214;2022-07-19T14:52:19;6.47;;;4.50;;
1026;SDS011;502;48.746;9.214;2022-07-19T14:54:46;5.57;;;4.50;;
1026;SDS011;502;48.746;9.214;2022-07-19T14:57:13;4.73;;;4.33;;
1026;SDS011;502;48.746;9.214;2022-07-19T14:59:39;5.37;;;4.13;;
1026;SDS011;502;48.746;9.214;2022-07-19T15:02:06;5.80;;;4.60;;
1026;SDS011;502;48.746;9.214;2022-07-19T15:04:34;5.53;;;4.40;;
1026;SDS011;502;48.746;9.214;2022-07-19T15:07:03;5.10;;;4.57;;
1026;SDS011;502;48.746;9.214;2022-07-19T15:09:29;4.70;;;4.20;;
1026;SDS011;502;48.746;9.214;2022-07-19T15:11:56;5.30;;;4.80;;
1026;SDS011;502;48.746;9.214;2022-07-19T15:14:25;7.53;;;4.20;;
1026;SDS011;502;48.746;9.214;2022-07-19T15:16:53;5.57;;;4.23;;
1026;SDS011;502;48.746;9.214;2022-07-19T15:19:20;4.40;;;4.00;;
1026;SDS011;502;48.746;9.214;2022-07-19T15:21:47;4.57;;;4.17;;
1026;SDS011;502;48.746;9.214;2022-07-19T15:24:15;6.77;;;4.60;;
1026;SDS011;502;48.746;9.214;2022-07-19T15:26:41;4.13;;;3.73;;
1026;SDS011;502;48.746;9.214;2022-07-19T15:29:08;6.50;;;4.10;;
1026;SDS011;502;48.746;9.214;2022-07-19T15:31:35;9.60;;;4.37;;
1026;SDS011;502;48.746;9.214;2022-07-19T15:34:02;4.50;;;4.10;;
1026;SDS011;502;48.746;9.214;2022-07-19T15:36:29;4.00;;;3.50;;
1026;SDS011;502;48.746;9.214;2022-07-19T15:38:56;4.67;;;4.23;;
1026;SDS011;502;48.746;9.214;2022-07-19T15:41:25;6.97;;;4.30;;
1026;SDS011;502;48.746;9.214;2022-07-19T15:43:51;4.80;;;4.40;;
1026;SDS011;502;48.746;9.214;2022-07-19T15:46:18;6.50;;;3.77;;